sensor_id;sensor_type;location;lat;lon;timestamp;pressure;altitude;pressure_sealevel;temperature;humidity
58072;BME280;60383;46.626;18.866;2023-05-11T00:01:16;100409.47;;;11.76;64.19
58072;BME280;60383;46.626;18.866;2023-05-11T00:03:41;100407.47;;;11.95;64.28
58072;BME280;60383;46.626;18.866;2023-05-11T00:06:07;100415.38;;;11.98;63.92
58072;BME280;60383;46.626;18.866;2023-05-11T00:08:33;100409.16;;;11.88;63.81
58072;BME280;60383;46.626;18.866;2023-05-11T00:10:58;100404.00;;;11.93;63.53
58072;BME280;60383;46.626;18.866;2023-05-11T00:13:27;100402.56;;;11.72;63.63
58072;BME280;60383;46.626;18.866;2023-05-11T00:15:53;100395.59;;;11.86;63.63
58072;BME280;60383;46.626;18.866;2023-05-11T00:18:18;100400.06;;;11.87;63.83
58072;BME280;60383;46.626;18.866;2023-05-11T00:20:45;100398.06;;;11.97;63.75
58072;BME280;60383;46.626;18.866;2023-05-11T00:23:10;100400.50;;;12.01;63.60
58072;BME280;60383;46.626;18.866;2023-05-11T00:25:36;100408.31;;;11.87;63.63
58072;BME280;60383;46.626;18.866;2023-05-11T00:28:01;100395.75;;;11.85;62.88
58072;BME280;60383;46.626;18.866;2023-05-11T00:30:26;100398.25;;;11.61;64.38
58072;BME280;60383;46.626;18.866;2023-05-11T00:32:52;100403.31;;;11.48;64.79
58072;BME280;60383;46.626;18.866;2023-05-11T00:35:18;100396.38;;;11.62;64.67
58072;BME280;60383;46.626;18.866;2023-05-11T00:37:43;100393.38;;;11.47;64.89
58072;BME280;60383;46.626;18.866;2023-05-11T00:40:09;100395.28;;;11.46;64.49
58072;BME280;60383;46.626;18.866;2023-05-11T00:42:35;100396.19;;;11.63;63.95
58072;BME280;60383;46.626;18.866;2023-05-11T00:45:00;100396.94;;;11.82;63.31
58072;BME280;60383;46.626;18.866;2023-05-11T00:47:26;100394.56;;;11.79;62.94
58072;BME280;60383;46.626;18.866;2023-05-11T00:49:52;100394.91;;;11.41;64.04
58072;BME280;60383;46.626;18.866;2023-05-11T00:52:21;100400.53;;;11.31;63.88
58072;BME280;60383;46.626;18.866;2023-05-11T00:54:47;100394.44;;;11.46;64.31
58072;BME280;60383;46.626;18.866;2023-05-11T00:57:13;100395.34;;;11.63;63.75
58072;BME280;60383;46.626;18.866;2023-05-11T00:59:39;100401.03;;;11.70;63.40
58072;BME280;60383;46.626;18.866;2023-05-11T01:02:05;100397.56;;;11.67;63.77
58072;BME280;60383;46.626;18.866;2023-05-11T01:04:31;100395.19;;;11.30;63.91
58072;BME280;60383;46.626;18.866;2023-05-11T01:07:17;100394.78;;;11.51;64.12
58072;BME280;60383;46.626;18.866;2023-05-11T01:10:01;100391.22;;;11.24;64.73
58072;BME280;60383;46.626;18.866;2023-05-11T01:15:05;100383.97;;;11.15;64.79
58072;BME280;60383;46.626;18.866;2023-05-11T01:17:45;100385.03;;;11.22;64.52
58072;BME280;60383;46.626;18.866;2023-05-11T01:20:20;100387.59;;;11.24;64.88
58072;BME280;60383;46.626;18.866;2023-05-11T01:23:09;100386.81;;;11.40;64.56
58072;BME280;60383;46.626;18.866;2023-05-11T01:31:14;100375.56;;;11.08;64.34
58072;BME280;60383;46.626;18.866;2023-05-11T01:33:56;100387.28;;;11.27;63.93
58072;BME280;60383;46.626;18.866;2023-05-11T01:36:27;100384.44;;;11.10;64.36
58072;BME280;60383;46.626;18.866;2023-05-11T01:38:53;100388.53;;;11.32;63.40
58072;BME280;60383;46.626;18.866;2023-05-11T01:41:23;100386.53;;;11.16;64.08
58072;BME280;60383;46.626;18.866;2023-05-11T01:43:56;100381.50;;;11.03;64.01
58072;BME280;60383;46.626;18.866;2023-05-11T01:46:25;100384.06;;;10.79;65.10
58072;BME280;60383;46.626;18.866;2023-05-11T01:48:53;100386.22;;;10.93;65.20
58072;BME280;60383;46.626;18.866;2023-05-11T01:51:23;100383.22;;;11.05;64.70
58072;BME280;60383;46.626;18.866;2023-05-11T01:53:50;100388.16;;;10.75;65.54
58072;BME280;60383;46.626;18.866;2023-05-11T01:56:20;100391.53;;;10.68;65.47
58072;BME280;60383;46.626;18.866;2023-05-11T01:58:47;100394.28;;;10.68;65.92
58072;BME280;60383;46.626;18.866;2023-05-11T02:01:15;100386.25;;;10.75;65.89
58072;BME280;60383;46.626;18.866;2023-05-11T02:03:43;100395.34;;;10.76;66.21
58072;BME280;60383;46.626;18.866;2023-05-11T02:06:12;100382.59;;;10.66;66.69
58072;BME280;60383;46.626;18.866;2023-05-11T02:08:40;100381.03;;;10.82;65.92
58072;BME280;60383;46.626;18.866;2023-05-11T02:11:07;100379.19;;;10.91;65.73
58072;BME280;60383;46.626;18.866;2023-05-11T02:13:35;100379.28;;;10.81;65.44
58072;BME280;60383;46.626;18.866;2023-05-11T02:16:03;100385.50;;;10.65;66.12
58072;BME280;60383;46.626;18.866;2023-05-11T02:18:30;100381.25;;;10.44;66.94
58072;BME280;60383;46.626;18.866;2023-05-11T02:20:57;100378.00;;;10.67;66.10
58072;BME280;60383;46.626;18.866;2023-05-11T02:23:24;100382.25;;;10.43;66.81
58072;BME280;60383;46.626;18.866;2023-05-11T02:25:52;100374.88;;;10.62;66.52
58072;BME280;60383;46.626;18.866;2023-05-11T02:28:18;100378.09;;;10.21;67.53
58072;BME280;60383;46.626;18.866;2023-05-11T02:30:46;100369.91;;;10.39;67.01
58072;BME280;60383;46.626;18.866;2023-05-11T02:33:18;100378.31;;;10.64;66.28
58072;BME280;60383;46.626;18.866;2023-05-11T02:35:45;100376.56;;;10.36;67.28
58072;BME280;60383;46.626;18.866;2023-05-11T02:38:12;100370.81;;;10.48;66.48
58072;BME280;60383;46.626;18.866;2023-05-11T02:40:45;100375.19;;;10.22;67.92
58072;BME280;60383;46.626;18.866;2023-05-11T02:43:12;100368.88;;;10.40;66.90
58072;BME280;60383;46.626;18.866;2023-05-11T02:45:42;100373.13;;;10.61;67.37
58072;BME280;60383;46.626;18.866;2023-05-11T02:48:12;100367.63;;;10.52;66.81
58072;BME280;60383;46.626;18.866;2023-05-11T02:50:42;100372.06;;;10.17;67.95
58072;BME280;60383;46.626;18.866;2023-05-11T02:53:13;100371.06;;;10.18;68.04
58072;BME280;60383;46.626;18.866;2023-05-11T02:55:40;100376.28;;;10.12;68.19
58072;BME280;60383;46.626;18.866;2023-05-11T02:58:06;100374.47;;;10.02;67.75
58072;BME280;60383;46.626;18.866;2023-05-11T03:00:32;100369.91;;;10.39;67.87
58072;BME280;60383;46.626;18.866;2023-05-11T03:02:58;100369.50;;;10.16;67.86
58072;BME280;60383;46.626;18.866;2023-05-11T03:05:23;100362.97;;;10.17;68.27
58072;BME280;60383;46.626;18.866;2023-05-11T03:07:50;100365.78;;;10.07;67.89
58072;BME280;60383;46.626;18.866;2023-05-11T03:10:16;100364.47;;;9.93;68.99
58072;BME280;60383;46.626;18.866;2023-05-11T03:12:42;100367.66;;;9.88;69.13
58072;BME280;60383;46.626;18.866;2023-05-11T03:15:08;100372.72;;;9.65;69.79
58072;BME280;60383;46.626;18.866;2023-05-11T03:17:36;100366.63;;;9.71;69.90
58072;BME280;60383;46.626;18.866;2023-05-11T03:20:06;100364.63;;;9.91;69.28
58072;BME280;60383;46.626;18.866;2023-05-11T03:22:33;100371.66;;;9.94;68.91
58072;BME280;60383;46.626;18.866;2023-05-11T03:25:00;100374.06;;;9.97;68.74
58072;BME280;60383;46.626;18.866;2023-05-11T03:27:27;100371.13;;;9.90;69.46
58072;BME280;60383;46.626;18.866;2023-05-11T03:29:54;100374.41;;;10.12;68.91
58072;BME280;60383;46.626;18.866;2023-05-11T03:32:21;100367.44;;;10.18;68.11
58072;BME280;60383;46.626;18.866;2023-05-11T03:34:47;100368.16;;;10.20;67.79
58072;BME280;60383;46.626;18.866;2023-05-11T03:37:14;100375.56;;;10.10;68.36
58072;BME280;60383;46.626;18.866;2023-05-11T03:39:44;100369.63;;;9.96;68.81
58072;BME280;60383;46.626;18.866;2023-05-11T03:42:12;100371.75;;;10.20;68.57
58072;BME280;60383;46.626;18.866;2023-05-11T03:44:40;100369.47;;;9.98;68.92
58072;BME280;60383;46.626;18.866;2023-05-11T03:47:07;100372.78;;;10.01;69.39
58072;BME280;60383;46.626;18.866;2023-05-11T03:49:35;100369.16;;;10.19;68.27
58072;BME280;60383;46.626;18.866;2023-05-11T03:52:01;100367.44;;;10.18;68.03
58072;BME280;60383;46.626;18.866;2023-05-11T03:54:28;100367.84;;;10.05;68.92
58072;BME280;60383;46.626;18.866;2023-05-11T03:56:54;100378.47;;;10.26;68.69
58072;BME280;60383;46.626;18.866;2023-05-11T03:59:19;100367.41;;;9.82;69.49
58072;BME280;60383;46.626;18.866;2023-05-11T04:01:45;100371.13;;;10.09;69.46
58072;BME280;60383;46.626;18.866;2023-05-11T04:04:11;100365.56;;;10.00;69.45
58072;BME280;60383;46.626;18.866;2023-05-11T04:06:36;100364.47;;;10.11;69.30
58072;BME280;60383;46.626;18.866;2023-05-11T04:09:02;100367.78;;;10.15;69.16
58072;BME280;60383;46.626;18.866;2023-05-11T04:11:28;100367.16;;;10.39;69.15
58072;BME280;60383;46.626;18.866;2023-05-11T04:13:54;100367.28;;;10.01;69.24
58072;BME280;60383;46.626;18.866;2023-05-11T04:16:20;100368.00;;;10.21;69.44
58072;BME280;60383;46.626;18.866;2023-05-11T04:18:45;100373.41;;;9.95;69.33
58072;BME280;60383;46.626;18.866;2023-05-11T04:21:11;100380.44;;;10.16;69.29
58072;BME280;60383;46.626;18.866;2023-05-11T04:23:36;100373.41;;;10.49;68.59
58072;BME280;60383;46.626;18.866;2023-05-11T04:26:02;100379.75;;;10.50;68.31
58072;BME280;60383;46.626;18.866;2023-05-11T04:28:27;100376.44;;;10.28;69.16
58072;BME280;60383;46.626;18.866;2023-05-11T04:30:55;100375.19;;;10.22;68.90
58072;BME280;60383;46.626;18.866;2023-05-11T04:33:21;100378.66;;;10.43;68.60
58072;BME280;60383;46.626;18.866;2023-05-11T04:35:49;100378.09;;;10.57;68.75
58072;BME280;60383;46.626;18.866;2023-05-11T04:38:15;100388.63;;;10.70;68.09
58072;BME280;60383;46.626;18.866;2023-05-11T04:40:41;100379.66;;;10.60;68.56
58072;BME280;60383;46.626;18.866;2023-05-11T04:43:06;100377.88;;;10.50;68.42
58072;BME280;60383;46.626;18.866;2023-05-11T04:45:32;100380.31;;;10.80;68.70
58072;BME280;60383;46.626;18.866;2023-05-11T04:47:57;100379.41;;;10.97;68.17
58072;BME280;60383;46.626;18.866;2023-05-11T04:50:22;100387.69;;;10.79;67.85
58072;BME280;60383;46.626;18.866;2023-05-11T04:52:48;100387.88;;;10.86;68.01
58072;BME280;60383;46.626;18.866;2023-05-11T04:55:14;100394.44;;;10.67;68.25
58072;BME280;60383;46.626;18.866;2023-05-11T04:57:40;100381.03;;;11.08;67.92
58072;BME280;60383;46.626;18.866;2023-05-11T05:00:06;100380.84;;;11.10;67.58
58072;BME280;60383;46.626;18.866;2023-05-11T05:02:32;100385.78;;;11.32;66.62
58072;BME280;60383;46.626;18.866;2023-05-11T05:04:58;100385.22;;;11.21;67.39
58072;BME280;60383;46.626;18.866;2023-05-11T05:07:25;100392.94;;;11.25;66.44
58072;BME280;60383;46.626;18.866;2023-05-11T05:09:50;100386.88;;;11.48;66.85
58072;BME280;60383;46.626;18.866;2023-05-11T05:12:16;100386.91;;;11.56;66.11
58072;BME280;60383;46.626;18.866;2023-05-11T05:14:41;100386.56;;;11.51;66.49
58072;BME280;60383;46.626;18.866;2023-05-11T05:17:07;100388.41;;;11.50;65.71
58072;BME280;60383;46.626;18.866;2023-05-11T05:19:32;100387.84;;;11.73;67.01
58072;BME280;60383;46.626;18.866;2023-05-11T05:21:57;100397.84;;;11.91;65.70
58072;BME280;60383;46.626;18.866;2023-05-11T05:24:23;100397.25;;;12.13;66.04
58072;BME280;60383;46.626;18.866;2023-05-11T05:26:48;100397.44;;;12.20;64.83
58072;BME280;60383;46.626;18.866;2023-05-11T05:29:14;100390.38;;;12.26;64.48
58072;BME280;60383;46.626;18.866;2023-05-11T05:31:39;100398.50;;;12.52;63.87
58072;BME280;60383;46.626;18.866;2023-05-11T05:34:05;100398.47;;;12.27;64.99
58072;BME280;60383;46.626;18.866;2023-05-11T05:36:30;100402.09;;;12.36;64.77
58072;BME280;60383;46.626;18.866;2023-05-11T05:38:56;100399.19;;;12.46;64.23
58072;BME280;60383;46.626;18.866;2023-05-11T05:41:22;100392.81;;;12.62;63.71
58072;BME280;60383;46.626;18.866;2023-05-11T05:43:48;100382.00;;;12.44;63.63
58072;BME280;60383;46.626;18.866;2023-05-11T05:46:14;100392.28;;;13.00;62.19
58072;BME280;60383;46.626;18.866;2023-05-11T05:48:39;100387.78;;;13.23;61.04
58072;BME280;60383;46.626;18.866;2023-05-11T05:51:05;100387.16;;;12.97;61.23
58072;BME280;60383;46.626;18.866;2023-05-11T05:53:31;100389.84;;;13.05;60.94
58072;BME280;60383;46.626;18.866;2023-05-11T05:55:56;100390.47;;;13.32;61.60
58072;BME280;60383;46.626;18.866;2023-05-11T05:58:22;100394.38;;;13.62;60.03
58072;BME280;60383;46.626;18.866;2023-05-11T06:00:47;100393.28;;;13.71;59.56
58072;BME280;60383;46.626;18.866;2023-05-11T06:03:13;100392.97;;;13.66;60.22
58072;BME280;60383;46.626;18.866;2023-05-11T06:05:39;100397.47;;;13.59;59.38
58072;BME280;60383;46.626;18.866;2023-05-11T06:08:04;100389.81;;;14.09;59.12
58072;BME280;60383;46.626;18.866;2023-05-11T06:10:30;100387.06;;;14.09;59.21
58072;BME280;60383;46.626;18.866;2023-05-11T06:12:55;100388.06;;;14.40;57.09
58072;BME280;60383;46.626;18.866;2023-05-11T06:15:20;100386.28;;;14.24;58.78
58072;BME280;60383;46.626;18.866;2023-05-11T06:17:47;100385.69;;;14.60;57.98
58072;BME280;60383;46.626;18.866;2023-05-11T06:20:12;100385.75;;;14.75;57.34
58072;BME280;60383;46.626;18.866;2023-05-11T06:22:38;100382.31;;;14.73;54.76
58072;BME280;60383;46.626;18.866;2023-05-11T06:25:04;100380.38;;;14.81;55.95
58072;BME280;60383;46.626;18.866;2023-05-11T06:27:30;100373.63;;;14.84;56.29
58072;BME280;60383;46.626;18.866;2023-05-11T06:29:56;100380.31;;;15.05;55.77
58072;BME280;60383;46.626;18.866;2023-05-11T06:32:21;100375.19;;;15.16;55.19
58072;BME280;60383;46.626;18.866;2023-05-11T06:34:47;100391.34;;;15.34;54.56
58072;BME280;60383;46.626;18.866;2023-05-11T06:37:12;100383.63;;;15.15;53.44
58072;BME280;60383;46.626;18.866;2023-05-11T06:39:45;100382.47;;;14.94;52.87
58072;BME280;60383;46.626;18.866;2023-05-11T06:42:10;100376.03;;;15.17;52.43
58072;BME280;60383;46.626;18.866;2023-05-11T06:44:36;100376.59;;;15.27;52.22
58072;BME280;60383;46.626;18.866;2023-05-11T06:47:02;100381.28;;;15.42;53.10
58072;BME280;60383;46.626;18.866;2023-05-11T06:49:28;100379.09;;;15.52;52.68
58072;BME280;60383;46.626;18.866;2023-05-11T06:51:53;100381.38;;;15.48;52.05
58072;BME280;60383;46.626;18.866;2023-05-11T06:54:19;100377.59;;;15.49;53.65
58072;BME280;60383;46.626;18.866;2023-05-11T06:56:44;100372.22;;;15.48;50.61
58072;BME280;60383;46.626;18.866;2023-05-11T06:59:10;100375.09;;;15.55;51.94
58072;BME280;60383;46.626;18.866;2023-05-11T07:01:35;100373.19;;;15.40;52.92
58072;BME280;60383;46.626;18.866;2023-05-11T07:04:00;100370.03;;;15.73;51.83
58072;BME280;60383;46.626;18.866;2023-05-11T07:06:26;100368.38;;;15.94;51.34
58072;BME280;60383;46.626;18.866;2023-05-11T07:08:51;100365.78;;;16.07;50.46
58072;BME280;60383;46.626;18.866;2023-05-11T07:11:17;100381.28;;;16.23;51.30
58072;BME280;60383;46.626;18.866;2023-05-11T07:13:43;100372.59;;;16.48;50.49
58072;BME280;60383;46.626;18.866;2023-05-11T07:16:09;100369.28;;;16.38;50.03
58072;BME280;60383;46.626;18.866;2023-05-11T07:18:34;100368.38;;;16.52;48.23
58072;BME280;60383;46.626;18.866;2023-05-11T07:21:00;100370.88;;;16.25;48.76
58072;BME280;60383;46.626;18.866;2023-05-11T07:23:25;100375.09;;;16.21;48.13
58072;BME280;60383;46.626;18.866;2023-05-11T07:25:51;100369.25;;;16.53;49.19
58072;BME280;60383;46.626;18.866;2023-05-11T07:28:17;100360.53;;;16.56;48.46
58072;BME280;60383;46.626;18.866;2023-05-11T07:30:43;100367.63;;;16.87;48.43
58072;BME280;60383;46.626;18.866;2023-05-11T07:33:08;100372.66;;;15.96;47.70
58072;BME280;60383;46.626;18.866;2023-05-11T07:35:34;100377.34;;;15.81;48.63
58072;BME280;60383;46.626;18.866;2023-05-11T07:37:59;100371.13;;;16.09;48.92
58072;BME280;60383;46.626;18.866;2023-05-11T07:40:25;100370.41;;;16.43;48.40
58072;BME280;60383;46.626;18.866;2023-05-11T07:42:50;100385.94;;;16.66;48.40
58072;BME280;60383;46.626;18.866;2023-05-11T07:45:16;100374.06;;;16.44;49.66
58072;BME280;60383;46.626;18.866;2023-05-11T07:47:41;100371.22;;;16.87;46.82
58072;BME280;60383;46.626;18.866;2023-05-11T07:50:07;100360.75;;;16.83;48.75
58072;BME280;60383;46.626;18.866;2023-05-11T07:52:33;100373.16;;;17.15;47.49
58072;BME280;60383;46.626;18.866;2023-05-11T07:54:58;100373.94;;;17.37;47.44
58072;BME280;60383;46.626;18.866;2023-05-11T07:57:24;100383.13;;;17.38;45.34
58072;BME280;60383;46.626;18.866;2023-05-11T07:59:50;100377.09;;;17.28;44.54
58072;BME280;60383;46.626;18.866;2023-05-11T08:02:15;100371.16;;;17.31;44.70
58072;BME280;60383;46.626;18.866;2023-05-11T08:04:42;100376.41;;;17.19;43.59
58072;BME280;60383;46.626;18.866;2023-05-11T08:07:09;100372.47;;;17.06;44.76
58072;BME280;60383;46.626;18.866;2023-05-11T08:09:34;100364.66;;;17.17;44.58
58072;BME280;60383;46.626;18.866;2023-05-11T08:12:00;100370.84;;;17.19;45.29
58072;BME280;60383;46.626;18.866;2023-05-11T08:14:26;100367.34;;;17.32;46.49
58072;BME280;60383;46.626;18.866;2023-05-11T08:16:52;100365.19;;;17.34;45.63
58072;BME280;60383;46.626;18.866;2023-05-11T08:19:17;100366.47;;;17.31;45.80
58072;BME280;60383;46.626;18.866;2023-05-11T08:21:42;100366.31;;;17.39;47.17
58072;BME280;60383;46.626;18.866;2023-05-11T08:24:10;100370.41;;;17.15;45.60
58072;BME280;60383;46.626;18.866;2023-05-11T08:26:36;100356.72;;;17.07;45.27
58072;BME280;60383;46.626;18.866;2023-05-11T08:29:01;100365.84;;;17.36;47.74
58072;BME280;60383;46.626;18.866;2023-05-11T08:31:28;100359.00;;;17.67;46.14
58072;BME280;60383;46.626;18.866;2023-05-11T08:33:54;100350.47;;;17.68;45.10
58072;BME280;60383;46.626;18.866;2023-05-11T08:36:19;100354.47;;;18.01;44.61
58072;BME280;60383;46.626;18.866;2023-05-11T08:38:45;100355.41;;;17.80;45.90
58072;BME280;60383;46.626;18.866;2023-05-11T08:41:11;100348.81;;;18.36;44.58
58072;BME280;60383;46.626;18.866;2023-05-11T08:43:38;100353.75;;;17.92;43.05
58072;BME280;60383;46.626;18.866;2023-05-11T08:46:05;100347.72;;;17.68;44.01
58072;BME280;60383;46.626;18.866;2023-05-11T08:48:31;100351.88;;;17.51;43.56
58072;BME280;60383;46.626;18.866;2023-05-11T08:50:58;100343.28;;;17.81;43.53
58072;BME280;60383;46.626;18.866;2023-05-11T08:53:23;100334.72;;;17.69;43.36
58072;BME280;60383;46.626;18.866;2023-05-11T08:55:49;100337.88;;;17.59;44.52
58072;BME280;60383;46.626;18.866;2023-05-11T08:58:16;100333.81;;;17.55;44.01
58072;BME280;60383;46.626;18.866;2023-05-11T09:00:50;100341.25;;;17.54;44.46
58072;BME280;60383;46.626;18.866;2023-05-11T09:03:16;100335.31;;;17.64;45.14
58072;BME280;60383;46.626;18.866;2023-05-11T09:05:44;100334.88;;;17.54;46.44
58072;BME280;60383;46.626;18.866;2023-05-11T09:08:11;100347.88;;;17.53;45.52
58072;BME280;60383;46.626;18.866;2023-05-11T09:10:37;100328.09;;;17.21;45.67
58072;BME280;60383;46.626;18.866;2023-05-11T09:13:03;100345.09;;;17.53;45.99
58072;BME280;60383;46.626;18.866;2023-05-11T09:15:29;100333.00;;;17.26;47.08
58072;BME280;60383;46.626;18.866;2023-05-11T09:17:54;100337.50;;;17.34;47.71
58072;BME280;60383;46.626;18.866;2023-05-11T09:20:26;100335.94;;;17.18;47.80
58072;BME280;60383;46.626;18.866;2023-05-11T09:22:53;100329.94;;;16.86;47.96
58072;BME280;60383;46.626;18.866;2023-05-11T09:25:19;100340.91;;;16.72;47.32
58072;BME280;60383;46.626;18.866;2023-05-11T09:27:46;100334.81;;;16.55;47.33
58072;BME280;60383;46.626;18.866;2023-05-11T09:30:20;100324.00;;;16.60;48.63
58072;BME280;60383;46.626;18.866;2023-05-11T09:32:53;100350.03;;;16.44;48.01
58072;BME280;60383;46.626;18.866;2023-05-11T09:35:26;100338.13;;;16.44;48.57
58072;BME280;60383;46.626;18.866;2023-05-11T09:37:57;100336.13;;;16.38;48.89
58072;BME280;60383;46.626;18.866;2023-05-11T09:40:24;100333.78;;;16.35;48.60
58072;BME280;60383;46.626;18.866;2023-05-11T09:42:50;100342.84;;;16.07;49.22
58072;BME280;60383;46.626;18.866;2023-05-11T09:45:40;100327.91;;;16.23;50.43
58072;BME280;60383;46.626;18.866;2023-05-11T09:48:22;100327.19;;;16.36;49.68
58072;BME280;60383;46.626;18.866;2023-05-11T09:50:50;100328.13;;;16.21;50.03
58072;BME280;60383;46.626;18.866;2023-05-11T09:53:16;100324.97;;;16.03;50.67
58072;BME280;60383;46.626;18.866;2023-05-11T09:55:52;100329.16;;;16.20;49.68
58072;BME280;60383;46.626;18.866;2023-05-11T09:58:18;100311.66;;;16.35;49.09
58072;BME280;60383;46.626;18.866;2023-05-11T10:00:50;100317.16;;;16.78;49.05
58072;BME280;60383;46.626;18.866;2023-05-11T10:03:16;100314.59;;;17.05;48.06
58072;BME280;60383;46.626;18.866;2023-05-11T10:05:55;100309.34;;;17.65;47.65
58072;BME280;60383;46.626;18.866;2023-05-11T10:08:27;100309.47;;;17.44;47.45
58072;BME280;60383;46.626;18.866;2023-05-11T10:10:53;100302.31;;;17.63;46.46
58072;BME280;60383;46.626;18.866;2023-05-11T10:13:20;100288.53;;;17.89;48.45
58072;BME280;60383;46.626;18.866;2023-05-11T10:15:50;100285.22;;;18.01;47.06
58072;BME280;60383;46.626;18.866;2023-05-11T10:18:16;100289.84;;;17.94;46.32
58072;BME280;60383;46.626;18.866;2023-05-11T10:20:43;100302.31;;;17.63;46.83
58072;BME280;60383;46.626;18.866;2023-05-11T10:23:10;100281.69;;;17.79;45.82
58072;BME280;60383;46.626;18.866;2023-05-11T10:25:36;100279.59;;;17.94;46.45
58072;BME280;60383;46.626;18.866;2023-05-11T10:28:03;100289.78;;;17.73;44.33
58072;BME280;60383;46.626;18.866;2023-05-11T10:30:29;100285.22;;;18.08;44.13
58072;BME280;60383;46.626;18.866;2023-05-11T10:32:55;100277.06;;;17.93;44.71
58072;BME280;60383;46.626;18.866;2023-05-11T10:35:21;100268.16;;;18.04;46.04
58072;BME280;60383;46.626;18.866;2023-05-11T10:37:47;100273.94;;;18.16;45.68
58072;BME280;60383;46.626;18.866;2023-05-11T10:40:13;100281.59;;;18.14;45.59
58072;BME280;60383;46.626;18.866;2023-05-11T10:42:44;100285.63;;;17.98;45.38
58072;BME280;60383;46.626;18.866;2023-05-11T11:04:01;100271.84;;;17.63;46.60
58072;BME280;60383;46.626;18.866;2023-05-11T11:06:30;100271.41;;;17.59;46.70
58072;BME280;60383;46.626;18.866;2023-05-11T11:09:01;100269.69;;;17.58;46.55
58072;BME280;60383;46.626;18.866;2023-05-11T11:11:31;100258.00;;;17.63;47.81
58072;BME280;60383;46.626;18.866;2023-05-11T11:13:57;100261.59;;;17.56;46.14
58072;BME280;60383;46.626;18.866;2023-05-11T11:16:23;100257.38;;;17.61;46.64
58072;BME280;60383;46.626;18.866;2023-05-11T11:18:50;100272.47;;;17.51;47.14
58072;BME280;60383;46.626;18.866;2023-05-11T11:21:39;100271.41;;;17.52;47.65
58072;BME280;60383;46.626;18.866;2023-05-11T11:24:05;100265.81;;;17.39;47.05
58072;BME280;60383;46.626;18.866;2023-05-11T11:26:48;100271.81;;;17.49;47.10
58072;BME280;60383;46.626;18.866;2023-05-11T11:29:14;100264.78;;;17.05;48.49
58072;BME280;60383;46.626;18.866;2023-05-11T11:31:40;100270.63;;;17.23;48.16
58072;BME280;60383;46.626;18.866;2023-05-11T11:42:10;100265.25;;;17.08;47.45
58072;BME280;60383;46.626;18.866;2023-05-11T11:44:37;100265.91;;;17.17;47.85
58072;BME280;60383;46.626;18.866;2023-05-11T11:49:34;100270.56;;;17.10;48.18
58072;BME280;60383;46.626;18.866;2023-05-11T11:52:01;100271.44;;;16.89;47.66
58072;BME280;60383;46.626;18.866;2023-05-11T11:54:42;100273.59;;;16.87;47.72
58072;BME280;60383;46.626;18.866;2023-05-11T12:00:03;100278.59;;;16.76;47.10
58072;BME280;60383;46.626;18.866;2023-05-11T12:02:39;100272.63;;;16.73;46.30
58072;BME280;60383;46.626;18.866;2023-05-11T12:05:15;100273.22;;;16.68;46.71
58072;BME280;60383;46.626;18.866;2023-05-11T12:07:49;100269.13;;;16.57;47.27
58072;BME280;60383;46.626;18.866;2023-05-11T12:10:16;100261.13;;;16.69;46.87
58072;BME280;60383;46.626;18.866;2023-05-11T12:12:46;100273.53;;;16.52;48.16
58072;BME280;60383;46.626;18.866;2023-05-11T12:15:29;100277.22;;;16.59;47.96
58072;BME280;60383;46.626;18.866;2023-05-11T12:17:56;100269.41;;;16.69;47.08
58072;BME280;60383;46.626;18.866;2023-05-11T12:20:22;100267.38;;;16.78;46.87
58072;BME280;60383;46.626;18.866;2023-05-11T12:22:48;100272.97;;;16.63;47.29
58072;BME280;60383;46.626;18.866;2023-05-11T12:25:18;100278.06;;;16.59;47.07
58072;BME280;60383;46.626;18.866;2023-05-11T12:27:51;100267.56;;;16.48;48.12
58072;BME280;60383;46.626;18.866;2023-05-11T12:30:28;100256.59;;;16.61;47.36
58072;BME280;60383;46.626;18.866;2023-05-11T12:32:54;100263.88;;;16.69;47.30
58072;BME280;60383;46.626;18.866;2023-05-11T12:35:28;100265.25;;;16.52;47.63
58072;BME280;60383;46.626;18.866;2023-05-11T12:37:54;100266.38;;;16.57;47.97
58072;BME280;60383;46.626;18.866;2023-05-11T12:40:20;100265.63;;;16.49;47.66
58072;BME280;60383;46.626;18.866;2023-05-11T12:42:53;100255.69;;;16.26;48.21
58072;BME280;60383;46.626;18.866;2023-05-11T12:45:19;100264.28;;;16.38;47.29
58072;BME280;60383;46.626;18.866;2023-05-11T12:47:47;100257.91;;;16.66;46.99
58072;BME280;60383;46.626;18.866;2023-05-11T12:50:13;100254.59;;;16.49;47.68
58072;BME280;60383;46.626;18.866;2023-05-11T12:52:38;100259.63;;;16.17;48.35
58072;BME280;60383;46.626;18.866;2023-05-11T12:55:04;100271.81;;;16.01;45.96
58072;BME280;60383;46.626;18.866;2023-05-11T12:57:30;100252.22;;;15.95;45.52
58072;BME280;60383;46.626;18.866;2023-05-11T13:00:09;100257.22;;;16.07;45.18
58072;BME280;60383;46.626;18.866;2023-05-11T13:02:52;100257.59;;;15.82;45.45
58072;BME280;60383;46.626;18.866;2023-05-11T13:05:22;100265.81;;;15.97;45.32
58072;BME280;60383;46.626;18.866;2023-05-11T13:07:59;100255.25;;;16.01;46.73
58072;BME280;60383;46.626;18.866;2023-05-11T13:10:25;100249.69;;;15.79;47.25
58072;BME280;60383;46.626;18.866;2023-05-11T13:12:51;100251.69;;;16.07;46.19
58072;BME280;60383;46.626;18.866;2023-05-11T13:15:18;100261.94;;;15.91;47.58
58072;BME280;60383;46.626;18.866;2023-05-11T13:17:45;100253.91;;;15.96;47.06
58072;BME280;60383;46.626;18.866;2023-05-11T13:20:18;100252.88;;;15.97;47.80
58072;BME280;60383;46.626;18.866;2023-05-11T13:22:45;100261.03;;;16.06;46.92